Sunset Harbor, North Carolina
Current Conditions -  °F | °C
As of 11:15 AM on Monday 24 Nov 2014 (Local Time) from KSUT Reporting Station
Haze Haze  
Wind Chill: 66°   Ceiling: 300
Heat Index: 66°   Visibility: 1.7mi
Dew Point: 65°   Wind: 8mph
Humidity: 96%   Direction: 230°SW
Pressure: 29.91"   Gusts: NA
Location:  34.0134°N, 78.1689°W
Report Text: KSUT 241615Z AUTO 23007KT 1 3/4SM BR OVC003 19/18 A2991 RMK AO2 T01900183
Loading
Personal Weather Stations






























Interactive Weather Map New forecast layout! Learn more

10-Day Weather Forecast

Advertisements
Track Severe Weather on mobile